createdAt,value
2023-01-20T00:03:48.178Z,14.18
2023-01-20T00:06:35.650Z,12.85
2023-01-20T00:09:22.789Z,14.75
2023-01-20T00:12:09.869Z,13.77
2023-01-20T00:14:56.963Z,12.88
2023-01-20T00:17:44.004Z,12.27
2023-01-20T00:20:31.106Z,13.60
2023-01-20T00:23:18.171Z,12.77
2023-01-20T00:26:07.449Z,13.73
2023-01-20T00:28:55.526Z,13.60
2023-01-20T00:31:42.771Z,12.55
2023-01-20T00:34:29.920Z,12.98
2023-01-20T00:37:16.970Z,13.50
2023-01-20T00:40:04.452Z,13.15
2023-01-20T00:42:51.610Z,12.73
2023-01-20T00:45:38.694Z,14.77
2023-01-20T00:48:25.761Z,13.77
2023-01-20T00:51:13.027Z,14.32
2023-01-20T00:54:00.044Z,14.70
2023-01-20T00:56:47.164Z,14.65
2023-01-20T00:59:34.304Z,14.23
2023-01-20T01:02:21.411Z,14.07
2023-01-20T01:05:08.934Z,13.48
2023-01-20T01:07:56.056Z,14.35
2023-01-20T01:10:43.149Z,13.15
2023-01-20T01:13:30.582Z,12.32
2023-01-20T01:16:17.818Z,13.07
2023-01-20T01:19:04.983Z,13.45
2023-01-20T01:21:52.201Z,13.13
2023-01-20T01:24:39.362Z,13.32
2023-01-20T01:27:28.719Z,13.15
2023-01-20T01:30:15.819Z,13.75
2023-01-20T01:33:02.933Z,12.48
2023-01-20T01:35:57.359Z,13.05
2023-01-20T01:38:45.053Z,13.30
2023-01-20T01:41:44.913Z,14.18
2023-01-20T01:44:32.660Z,13.45
2023-01-20T01:47:19.753Z,14.25
2023-01-20T01:50:11.660Z,12.93
2023-01-20T01:52:59.013Z,13.57
2023-01-20T01:55:52.014Z,14.13
2023-01-20T01:58:44.925Z,13.52
2023-01-20T02:01:35.705Z,13.93
2023-01-20T02:04:25.988Z,13.95
2023-01-20T02:07:17.741Z,12.20
2023-01-20T02:10:05.336Z,13.57
2023-01-20T02:12:52.829Z,13.35
2023-01-20T02:15:58.745Z,13.70
2023-01-20T02:18:57.003Z,13.73
2023-01-20T02:22:28.229Z,13.48
2023-01-20T02:25:33.569Z,13.52
2023-01-20T02:28:31.992Z,13.15
2023-01-20T02:31:48.198Z,12.77
2023-01-20T02:34:44.567Z,12.88
2023-01-20T02:37:46.972Z,13.00
2023-01-20T02:40:47.771Z,13.70
2023-01-20T02:44:02.248Z,13.88
2023-01-20T02:47:04.302Z,14.13
2023-01-20T02:50:02.168Z,13.43
2023-01-20T02:52:53.581Z,12.70
2023-01-20T02:55:49.529Z,13.10
2023-01-20T02:59:08.077Z,14.18
2023-01-20T03:02:05.130Z,13.20
2023-01-20T03:04:59.322Z,13.45
2023-01-20T03:07:48.780Z,13.30
2023-01-20T03:10:38.753Z,10.38
2023-01-20T03:13:35.573Z,12.48
2023-01-20T03:16:24.932Z,13.30
2023-01-20T03:19:12.120Z,13.73
2023-01-20T03:21:59.262Z,12.82
2023-01-20T03:24:48.703Z,13.55
2023-01-20T03:27:35.786Z,12.98
2023-01-20T03:30:25.145Z,14.90
2023-01-20T03:33:13.045Z,14.25
2023-01-20T03:36:00.271Z,14.68
2023-01-20T03:38:48.202Z,14.63
2023-01-20T03:41:41.146Z,13.35
2023-01-20T03:44:36.925Z,13.18
2023-01-20T03:47:38.398Z,14.10
2023-01-20T03:50:57.354Z,15.05
2023-01-20T03:53:51.346Z,14.52
2023-01-20T03:56:45.197Z,14.75
2023-01-20T03:59:38.984Z,14.82
2023-01-20T04:02:27.881Z,14.40
2023-01-20T04:05:17.166Z,13.82
2023-01-20T04:08:08.934Z,14.55
2023-01-20T04:10:58.063Z,14.10
2023-01-20T04:13:45.383Z,15.18
2023-01-20T04:16:32.549Z,13.30
2023-01-20T04:19:19.633Z,14.50
2023-01-20T04:22:13.709Z,13.23
2023-01-20T04:25:14.212Z,13.90
2023-01-20T04:28:01.361Z,14.23
2023-01-20T04:30:48.531Z,14.38
2023-01-20T04:33:39.211Z,14.60
2023-01-20T04:36:26.325Z,14.50
2023-01-20T04:39:13.422Z,15.57
2023-01-20T04:42:00.508Z,14.80
2023-01-20T04:44:47.603Z,13.75
2023-01-20T04:47:34.958Z,13.20
2023-01-20T04:50:22.072Z,14.32
2023-01-20T04:53:13.955Z,14.50
2023-01-20T04:56:01.074Z,14.20
2023-01-20T04:58:48.350Z,13.00
2023-01-20T05:01:35.649Z,14.85
2023-01-20T05:04:22.796Z,14.00
2023-01-20T05:07:09.890Z,14.20
2023-01-20T05:09:56.927Z,14.20
2023-01-20T05:12:43.998Z,14.30
2023-01-20T05:15:31.134Z,14.05
2023-01-20T05:18:18.200Z,15.32
2023-01-20T05:21:06.132Z,12.48
2023-01-20T05:23:57.676Z,14.88
2023-01-20T05:26:44.770Z,12.60
2023-01-20T05:29:31.876Z,13.25
2023-01-20T05:32:18.943Z,12.82
2023-01-20T05:35:06.575Z,13.38
2023-01-20T05:37:54.884Z,13.32
2023-01-20T05:40:41.939Z,12.75
2023-01-20T05:43:29.096Z,12.13
2023-01-20T05:46:16.186Z,13.60
2023-01-20T05:49:03.446Z,13.90
2023-01-20T05:51:50.607Z,13.85
2023-01-20T05:54:37.692Z,12.90
2023-01-20T05:57:25.997Z,13.10
2023-01-20T06:00:15.140Z,13.95
2023-01-20T06:03:02.479Z,13.23
2023-01-20T06:05:50.182Z,12.98
2023-01-20T06:08:37.274Z,12.30
2023-01-20T06:11:25.720Z,13.48
2023-01-20T06:14:12.743Z,12.52
2023-01-20T06:16:59.915Z,14.18
2023-01-20T06:19:47.079Z,13.73
2023-01-20T06:22:34.175Z,14.13
2023-01-20T06:25:21.177Z,14.32
2023-01-20T06:28:08.964Z,13.63
2023-01-20T06:31:00.941Z,13.23
2023-01-20T06:33:48.138Z,12.55
2023-01-20T06:36:36.162Z,13.55
2023-01-20T06:39:23.351Z,12.65
2023-01-20T06:42:11.610Z,12.40
2023-01-20T06:44:58.824Z,12.65
2023-01-20T06:47:49.742Z,11.18
2023-01-20T06:50:36.888Z,13.32
2023-01-20T06:53:24.003Z,13.43
2023-01-20T06:56:12.368Z,13.27
2023-01-20T06:58:59.486Z,14.35
2023-01-20T07:01:47.079Z,14.20
2023-01-20T07:04:34.191Z,12.90
2023-01-20T07:07:21.248Z,13.13
2023-01-20T07:10:09.377Z,12.68
2023-01-20T07:12:56.440Z,12.88
2023-01-20T07:15:43.612Z,14.35
2023-01-20T07:18:30.725Z,13.63
2023-01-20T07:21:18.876Z,13.27
2023-01-20T07:24:06.509Z,13.27
2023-01-20T07:26:54.177Z,12.63
2023-01-20T07:29:41.621Z,14.18
2023-01-20T07:32:31.633Z,12.88
2023-01-20T07:35:19.171Z,12.40
2023-01-20T07:38:06.256Z,12.27
2023-01-20T07:40:53.507Z,12.55
2023-01-20T07:43:40.647Z,12.60
2023-01-20T07:46:27.738Z,12.35
2023-01-20T07:49:15.048Z,14.15
2023-01-20T07:52:02.112Z,13.50
2023-01-20T07:54:49.193Z,14.07
2023-01-20T07:57:36.278Z,15.32
2023-01-20T08:00:23.448Z,15.68
2023-01-20T08:03:10.507Z,17.55
2023-01-20T08:05:57.564Z,18.00
2023-01-20T08:08:44.904Z,18.10
2023-01-20T08:11:34.666Z,18.23
2023-01-20T08:14:21.879Z,19.23
2023-01-20T08:17:08.903Z,18.30
2023-01-20T08:19:55.955Z,18.58
2023-01-20T08:22:43.059Z,17.20
2023-01-20T08:25:30.164Z,18.17
2023-01-20T08:28:17.257Z,17.05
2023-01-20T08:31:09.824Z,16.90
2023-01-20T08:33:57.260Z,15.32
2023-01-20T08:36:45.375Z,14.63
2023-01-20T08:39:32.513Z,14.82
2023-01-20T08:42:19.623Z,13.05
2023-01-20T08:45:08.844Z,13.65
2023-01-20T08:47:56.101Z,13.20
2023-01-20T08:50:43.147Z,13.27
2023-01-20T08:53:30.262Z,12.23
2023-01-20T08:56:18.479Z,12.05
2023-01-20T08:59:05.720Z,12.75
2023-01-20T09:01:52.797Z,12.25
2023-01-20T09:04:39.939Z,12.93
2023-01-20T09:07:27.288Z,13.05
2023-01-20T09:10:14.543Z,11.38
2023-01-20T09:13:01.652Z,10.90
2023-01-20T09:15:53.076Z,10.55
2023-01-20T09:18:40.220Z,10.00
2023-01-20T09:21:27.332Z,10.50
2023-01-20T09:24:14.806Z,10.07
2023-01-20T09:27:01.888Z,10.00
2023-01-20T09:29:48.992Z,10.82
2023-01-20T09:32:36.093Z,9.32
2023-01-20T09:35:23.261Z,10.20
2023-01-20T09:38:29.043Z,9.75
2023-01-20T09:41:47.845Z,9.95
2023-01-20T09:44:38.186Z,9.75
2023-01-20T09:47:31.355Z,9.27
2023-01-20T09:51:05.489Z,9.93
2023-01-20T09:54:07.071Z,9.70
2023-01-20T09:56:56.602Z,10.27
2023-01-20T09:59:53.723Z,9.10
2023-01-20T10:02:45.026Z,10.70
2023-01-20T10:05:37.870Z,9.57
2023-01-20T10:09:04.588Z,9.52
2023-01-20T10:12:03.037Z,10.50
2023-01-20T10:15:10.208Z,10.77
2023-01-20T10:18:01.033Z,10.93
2023-01-20T10:21:01.205Z,11.25
2023-01-20T10:23:58.586Z,11.07
2023-01-20T10:27:02.508Z,10.82
2023-01-20T10:29:56.300Z,10.98
2023-01-20T10:32:53.657Z,12.70
2023-01-20T10:35:46.467Z,12.77
2023-01-20T10:38:41.141Z,12.15
2023-01-20T10:41:31.261Z,12.70
2023-01-20T10:44:18.462Z,14.05
2023-01-20T10:47:15.976Z,14.80
2023-01-20T10:50:05.784Z,15.90
2023-01-20T10:53:34.220Z,17.00
2023-01-20T10:56:36.208Z,16.73
2023-01-20T10:59:35.683Z,16.75
2023-01-20T11:02:29.377Z,18.70
2023-01-20T11:05:21.050Z,17.08
2023-01-20T11:08:31.669Z,19.67
2023-01-20T11:11:25.288Z,18.88
2023-01-20T11:14:12.427Z,19.42
2023-01-20T11:17:06.496Z,17.48
2023-01-20T11:20:04.719Z,17.02
2023-01-20T11:22:51.795Z,16.55
2023-01-20T11:25:39.528Z,19.35
2023-01-20T11:28:32.215Z,21.58
2023-01-20T11:31:20.574Z,16.90
2023-01-20T11:34:31.111Z,17.77
2023-01-20T11:37:36.660Z,22.58
2023-01-20T11:40:26.578Z,24.60
2023-01-20T11:43:28.248Z,27.30
2023-01-20T11:46:33.764Z,21.73
2023-01-20T11:49:22.676Z,18.17
2023-01-20T11:52:21.017Z,20.25
2023-01-20T11:55:20.854Z,16.92
2023-01-20T11:58:21.093Z,16.40
2023-01-20T12:04:24.877Z,15.93
2023-01-20T12:07:21.631Z,15.02
2023-01-20T12:10:23.823Z,15.25
2023-01-20T12:13:25.911Z,15.98
2023-01-20T12:16:13.053Z,14.90
2023-01-20T12:19:04.883Z,16.02
2023-01-20T12:21:54.472Z,15.68
2023-01-20T12:25:10.402Z,15.10
2023-01-20T12:28:14.362Z,14.43
2023-01-20T12:31:03.905Z,14.32
2023-01-20T12:33:55.187Z,14.95
2023-01-20T12:37:03.789Z,15.00
2023-01-20T12:40:04.577Z,127.72
2023-01-20T12:43:27.077Z,25.42
2023-01-20T12:46:32.309Z,15.85
2023-01-20T12:49:25.209Z,14.90
2023-01-20T12:52:39.425Z,15.63
2023-01-20T12:56:04.629Z,14.10
2023-01-20T12:59:24.040Z,16.98
2023-01-20T13:02:18.708Z,14.23
2023-01-20T13:05:29.133Z,13.50
2023-01-20T13:08:37.424Z,14.82
2023-01-20T13:11:55.304Z,14.30
2023-01-20T13:14:58.854Z,13.93
2023-01-20T13:18:12.353Z,13.25
2023-01-20T13:20:59.461Z,13.50
2023-01-20T13:23:48.529Z,13.30
2023-01-20T13:26:36.902Z,13.18
2023-01-20T13:29:43.035Z,14.07
2023-01-20T13:32:32.483Z,13.50
2023-01-20T13:35:25.771Z,13.05
2023-01-20T13:38:39.684Z,11.93
2023-01-20T13:41:48.940Z,12.52
2023-01-20T13:44:36.491Z,12.33
2023-01-20T13:47:48.216Z,12.57
2023-01-20T13:50:39.674Z,11.18
2023-01-20T13:53:28.735Z,12.07
2023-01-20T13:56:27.879Z,12.93
2023-01-20T13:59:14.944Z,11.55
2023-01-20T14:02:22.256Z,12.55
2023-01-20T14:05:28.965Z,12.27
2023-01-20T14:08:16.291Z,11.45
2023-01-20T14:11:09.289Z,12.48
2023-01-20T14:13:58.622Z,12.32
2023-01-20T14:16:46.803Z,12.50
2023-01-20T14:19:37.663Z,12.57
2023-01-20T14:22:30.973Z,12.88
2023-01-20T14:25:26.787Z,13.40
2023-01-20T14:28:20.315Z,13.77
2023-01-20T14:31:18.703Z,13.32
2023-01-20T14:34:27.868Z,14.88
2023-01-20T14:37:29.153Z,14.50
2023-01-20T14:40:19.118Z,15.43
2023-01-20T14:43:21.018Z,14.55
2023-01-20T14:46:08.698Z,15.10
2023-01-20T14:48:57.152Z,15.73
2023-01-20T14:51:46.678Z,15.55
2023-01-20T14:54:41.821Z,16.33
2023-01-20T14:57:34.507Z,16.30
2023-01-20T15:00:30.737Z,16.20
2023-01-20T15:03:26.253Z,16.30
2023-01-20T15:06:22.112Z,16.10
2023-01-20T15:09:30.319Z,16.60
2023-01-20T15:12:48.489Z,17.13
2023-01-20T15:15:35.636Z,27.88
2023-01-20T15:18:23.828Z,22.90
2023-01-20T15:21:25.563Z,21.63
2023-01-20T15:24:17.444Z,19.38
2023-01-20T15:27:31.604Z,22.48
2023-01-20T15:30:21.331Z,25.02
2023-01-20T15:33:09.295Z,20.63
2023-01-20T15:35:59.139Z,20.83
2023-01-20T15:38:46.245Z,20.23
2023-01-20T15:41:33.359Z,21.13
2023-01-20T15:44:24.695Z,20.65
2023-01-20T15:47:26.203Z,20.55
2023-01-20T15:50:19.405Z,20.67
2023-01-20T15:53:06.595Z,20.33
2023-01-20T15:55:53.901Z,21.45
2023-01-20T15:58:40.974Z,19.77
2023-01-20T16:01:29.386Z,20.90
2023-01-20T16:04:16.589Z,21.70
2023-01-20T16:07:03.708Z,22.65
2023-01-20T16:09:50.852Z,21.95
2023-01-20T16:12:37.988Z,21.35
2023-01-20T16:15:25.246Z,22.02
2023-01-20T16:18:18.064Z,21.50
2023-01-20T16:21:05.334Z,22.88
2023-01-20T16:23:52.468Z,22.27
2023-01-20T16:26:39.963Z,20.70
2023-01-20T16:29:27.088Z,22.20
2023-01-20T16:32:18.194Z,21.90
2023-01-20T16:35:06.820Z,21.80
2023-01-20T16:37:54.269Z,22.60
2023-01-20T16:41:15.559Z,22.05
2023-01-20T16:44:02.809Z,20.90
2023-01-20T16:46:49.948Z,21.38
2023-01-20T16:49:37.300Z,22.65
2023-01-20T16:52:24.612Z,20.55
2023-01-20T16:55:13.559Z,22.90
2023-01-20T16:58:00.837Z,23.10
2023-01-20T17:00:48.094Z,21.27
2023-01-20T17:03:35.230Z,24.52
2023-01-20T17:06:25.326Z,22.95
2023-01-20T17:09:12.436Z,22.98
2023-01-20T17:11:59.665Z,22.50
2023-01-20T17:14:47.010Z,23.83
2023-01-20T17:17:38.704Z,22.50
2023-01-20T17:20:27.741Z,23.23
2023-01-20T17:23:15.470Z,21.83
2023-01-20T17:26:03.141Z,23.58
2023-01-20T17:28:55.375Z,22.38
2023-01-20T17:31:43.109Z,22.40
2023-01-20T17:34:30.399Z,22.75
2023-01-20T17:37:19.597Z,24.50
2023-01-20T17:40:07.418Z,24.03
2023-01-20T17:42:54.852Z,26.05
2023-01-20T17:45:43.047Z,25.52
2023-01-20T17:48:30.531Z,23.55
2023-01-20T17:51:20.724Z,26.13
2023-01-20T17:56:56.091Z,25.42
2023-01-20T17:59:43.370Z,24.17
2023-01-20T18:02:30.933Z,25.80
2023-01-20T18:05:18.831Z,26.50
2023-01-20T18:08:05.981Z,25.98
2023-01-20T18:10:54.663Z,27.05
2023-01-20T18:13:42.879Z,26.55
2023-01-20T18:16:33.085Z,26.67
2023-01-20T18:22:10.697Z,24.25
2023-01-20T18:24:58.164Z,25.92
2023-01-20T18:27:46.204Z,27.52
2023-01-20T18:30:34.520Z,26.05
2023-01-20T18:33:22.390Z,26.60
2023-01-20T18:36:15.274Z,27.08
2023-01-20T18:39:09.586Z,26.58
2023-01-20T18:41:57.050Z,25.60
2023-01-20T18:44:45.518Z,26.33
2023-01-20T18:47:36.561Z,29.15
2023-01-20T18:50:24.601Z,27.88
2023-01-20T18:53:11.840Z,26.95
2023-01-20T18:56:05.493Z,26.88
2023-01-20T18:58:54.023Z,25.30
2023-01-20T19:01:42.043Z,29.20
2023-01-20T19:04:30.208Z,28.88
2023-01-20T19:07:18.005Z,28.02
2023-01-20T19:10:06.176Z,28.27
2023-01-20T19:12:53.955Z,27.17
2023-01-20T19:15:42.230Z,27.88
2023-01-20T19:18:31.630Z,27.98
2023-01-20T19:21:21.182Z,27.00
2023-01-20T19:24:16.720Z,27.73
2023-01-20T19:27:05.593Z,26.02
2023-01-20T19:29:54.332Z,27.33
2023-01-20T19:32:43.038Z,26.38
2023-01-20T19:35:33.990Z,26.77
2023-01-20T19:38:21.924Z,27.33
2023-01-20T19:41:15.490Z,27.15
2023-01-20T19:44:06.780Z,26.55
2023-01-20T19:46:54.839Z,26.88
2023-01-20T19:49:43.022Z,26.27
2023-01-20T19:52:31.011Z,26.95
2023-01-20T19:55:19.047Z,27.77
2023-01-20T19:58:08.091Z,27.08
2023-01-20T20:00:57.792Z,27.15
2023-01-20T20:03:47.601Z,26.42
2023-01-20T20:06:40.960Z,25.75
2023-01-20T20:09:29.402Z,27.42
2023-01-20T20:12:17.693Z,26.13
2023-01-20T20:15:06.241Z,25.55
2023-01-20T20:17:56.953Z,27.27
2023-01-20T20:20:45.324Z,26.63
2023-01-20T20:23:33.304Z,26.25
2023-01-20T20:26:24.512Z,27.48
2023-01-20T20:29:13.233Z,26.85
2023-01-20T20:32:01.118Z,26.60
2023-01-20T20:34:50.726Z,26.10
2023-01-20T20:37:39.885Z,26.08
2023-01-20T20:40:27.711Z,26.98
2023-01-20T20:43:15.612Z,26.52
2023-01-20T20:46:05.339Z,26.80
2023-01-20T20:48:57.377Z,27.90
2023-01-20T20:51:48.688Z,27.15
2023-01-20T20:54:36.844Z,27.58
2023-01-20T20:57:24.555Z,28.55
2023-01-20T21:00:12.616Z,26.73
2023-01-20T21:03:02.657Z,28.58
2023-01-20T21:05:50.677Z,28.38
2023-01-20T21:08:39.735Z,29.85
2023-01-20T21:11:27.981Z,28.70
2023-01-20T21:14:16.202Z,29.63
2023-01-20T21:17:04.610Z,28.95
2023-01-20T21:19:52.574Z,29.27
2023-01-20T21:22:40.207Z,28.48
2023-01-20T21:25:29.129Z,28.42
2023-01-20T21:28:17.319Z,29.77
2023-01-20T21:31:10.432Z,28.90
2023-01-20T21:33:59.041Z,29.90
2023-01-20T21:36:46.288Z,29.83
2023-01-20T21:39:33.557Z,28.75
2023-01-20T21:42:21.369Z,27.48
2023-01-20T21:45:09.473Z,27.35
2023-01-20T21:48:16.520Z,27.17
2023-01-20T21:51:22.153Z,28.42
2023-01-20T21:54:09.795Z,27.80
2023-01-20T21:56:57.739Z,27.92
2023-01-20T21:59:45.825Z,32.63
2023-01-20T22:02:33.028Z,27.23
2023-01-20T22:05:20.330Z,27.70
2023-01-20T22:08:07.556Z,28.10
2023-01-20T22:10:58.961Z,27.23
2023-01-20T22:13:46.216Z,28.45
2023-01-20T22:16:33.530Z,28.02
2023-01-20T22:19:20.672Z,28.42
2023-01-20T22:22:08.132Z,29.35
2023-01-20T22:24:55.311Z,28.63
2023-01-20T22:27:42.411Z,29.98
2023-01-20T22:30:29.546Z,27.42
2023-01-20T22:33:16.621Z,27.95
2023-01-20T22:36:04.458Z,27.77
2023-01-20T22:38:52.988Z,31.17
2023-01-20T22:41:41.086Z,27.02
2023-01-20T22:44:28.146Z,26.45
2023-01-20T22:47:15.266Z,28.33
2023-01-20T22:50:02.382Z,27.27
2023-01-20T22:52:49.458Z,27.83
2023-01-20T22:55:36.656Z,25.75
2023-01-20T22:58:23.712Z,25.48
2023-01-20T23:01:14.332Z,27.88
2023-01-20T23:04:04.268Z,26.60
2023-01-20T23:06:51.294Z,27.83
2023-01-20T23:09:38.483Z,25.77
2023-01-20T23:12:25.586Z,26.13
2023-01-20T23:15:12.717Z,27.00
2023-01-20T23:17:59.738Z,27.05
2023-01-20T23:20:51.814Z,26.60
2023-01-20T23:23:39.179Z,27.15
2023-01-20T23:26:30.692Z,27.17
2023-01-20T23:29:17.753Z,27.27
2023-01-20T23:32:05.302Z,28.10
2023-01-20T23:34:52.359Z,27.35
2023-01-20T23:37:39.477Z,27.15
2023-01-20T23:40:27.003Z,27.27
2023-01-20T23:43:14.155Z,28.45
2023-01-20T23:46:03.479Z,28.90
2023-01-20T23:48:50.676Z,27.60
2023-01-20T23:51:37.889Z,26.15
2023-01-20T23:54:24.942Z,28.83
2023-01-20T23:57:11.995Z,27.75
2023-01-20T23:59:58.990Z,29.58
